createdAt,value
2023-05-06T00:02:40.454Z,101231.80
2023-05-06T00:07:50.009Z,101229.20
2023-05-06T00:12:59.815Z,101223.60
2023-05-06T00:18:09.815Z,101222.60
2023-05-06T00:23:19.325Z,101220.60
2023-05-06T00:28:28.795Z,101216.60
2023-05-06T00:33:38.645Z,101228.40
2023-05-06T00:38:48.265Z,101229.80
2023-05-06T00:43:57.712Z,101226.80
2023-05-06T00:49:07.511Z,101232.60
2023-05-06T00:54:17.799Z,101227.80
2023-05-06T00:59:27.422Z,101232.80
2023-05-06T01:04:37.841Z,101232.80
2023-05-06T01:09:57.540Z,101245.40
2023-05-06T01:15:16.773Z,101244.00
2023-05-06T01:20:27.659Z,101252.60
2023-05-06T01:25:37.273Z,101245.80
2023-05-06T01:30:59.399Z,101251.80
2023-05-06T01:36:21.627Z,101252.40
2023-05-06T01:41:35.433Z,101251.60
2023-05-06T01:46:46.875Z,101258.00
2023-05-06T01:51:58.588Z,101247.20
2023-05-06T01:57:08.105Z,101249.80
2023-05-06T02:02:17.627Z,101250.60
2023-05-06T02:07:27.126Z,101245.20
2023-05-06T02:12:36.623Z,101244.40
2023-05-06T02:17:46.561Z,101248.20
2023-05-06T02:22:56.681Z,101254.60
2023-05-06T02:28:06.325Z,101252.00
2023-05-06T02:33:15.812Z,101249.00
2023-05-06T02:38:27.176Z,101250.20
2023-05-06T02:43:36.705Z,101254.20
2023-05-06T02:48:46.660Z,101255.00
2023-05-06T02:53:56.167Z,101246.60
2023-05-06T02:59:05.653Z,101238.00
2023-05-06T03:04:15.233Z,101232.20
2023-05-06T03:09:24.854Z,101229.20
2023-05-06T03:14:34.265Z,101229.20
2023-05-06T03:19:44.565Z,101233.40
2023-05-06T03:24:54.290Z,101229.00
2023-05-06T03:30:03.801Z,101229.20
2023-05-06T03:35:14.568Z,101227.40
2023-05-06T03:40:24.255Z,101228.60
2023-05-06T03:45:33.842Z,101220.80
2023-05-06T03:50:43.706Z,101225.80
2023-05-06T03:55:53.184Z,101236.20
2023-05-06T04:01:03.076Z,101239.20
2023-05-06T04:06:12.752Z,101243.60
2023-05-06T04:11:22.242Z,101252.40
2023-05-06T04:16:31.753Z,101251.40
2023-05-06T04:21:41.257Z,101251.40
2023-05-06T04:26:51.593Z,101252.80
2023-05-06T04:32:01.178Z,101258.40
2023-05-06T04:37:11.020Z,101250.40
2023-05-06T04:42:20.685Z,101235.40
2023-05-06T04:47:30.166Z,101240.40
2023-05-06T04:52:39.791Z,101243.40
2023-05-06T04:57:49.244Z,101237.00
2023-05-06T05:02:58.934Z,101239.40
2023-05-06T05:08:09.007Z,101236.80
2023-05-06T05:13:18.609Z,101237.80
2023-05-06T05:18:29.424Z,101230.00
2023-05-06T05:23:38.966Z,101233.00
2023-05-06T05:28:48.404Z,101230.00
2023-05-06T05:33:58.031Z,101222.40
2023-05-06T05:39:07.631Z,101232.20
2023-05-06T05:44:17.335Z,101225.00
2023-05-06T05:49:26.787Z,101230.60
2023-05-06T05:54:37.567Z,101233.20
2023-05-06T05:59:46.992Z,101220.00
2023-05-06T06:04:57.058Z,101219.40
2023-05-06T06:10:07.829Z,101222.40
2023-05-06T06:15:18.157Z,101223.40
2023-05-06T06:20:27.613Z,101222.00
2023-05-06T06:25:37.108Z,101219.60
2023-05-06T06:30:46.716Z,101221.60
2023-05-06T06:35:56.356Z,101218.80
2023-05-06T06:41:06.247Z,101216.20
2023-05-06T06:46:15.963Z,101218.40
2023-05-06T06:51:25.557Z,101227.20
2023-05-06T06:56:35.055Z,101223.40
2023-05-06T07:01:46.036Z,101218.60
2023-05-06T07:06:55.596Z,101216.00
2023-05-06T07:12:06.321Z,101221.20
2023-05-06T07:17:16.110Z,101219.20
2023-05-06T07:22:25.868Z,101221.80
2023-05-06T07:27:35.548Z,101217.20
2023-05-06T07:32:45.221Z,101211.80
2023-05-06T07:37:54.792Z,101216.00
2023-05-06T07:43:04.336Z,101207.60
2023-05-06T07:48:14.325Z,101207.00
2023-05-06T07:53:24.650Z,101214.80
2023-05-06T07:58:34.517Z,101215.80
2023-05-06T08:03:44.224Z,101218.60
2023-05-06T08:08:53.956Z,101223.00
2023-05-06T08:14:03.600Z,101228.00
2023-05-06T08:19:13.073Z,101227.60
2023-05-06T08:24:22.609Z,101219.20
2023-05-06T08:29:32.124Z,101232.20
2023-05-06T08:34:41.905Z,101218.40
2023-05-06T08:39:51.413Z,101213.00
2023-05-06T08:45:01.864Z,101203.80
2023-05-06T08:50:13.808Z,101204.00
2023-05-06T08:55:25.850Z,101204.80
2023-05-06T09:00:37.011Z,101199.00
2023-05-06T09:05:46.850Z,101204.60
2023-05-06T09:10:56.378Z,101190.00
2023-05-06T09:16:06.632Z,101188.80
2023-05-06T09:21:16.260Z,101190.20
2023-05-06T09:26:28.084Z,101179.80
2023-05-06T09:31:44.255Z,101177.00
2023-05-06T09:36:57.407Z,101174.60
2023-05-06T09:42:07.155Z,101173.40
2023-05-06T09:47:17.746Z,101170.20
2023-05-06T09:52:27.858Z,101166.60
2023-05-06T09:57:38.429Z,101174.60
2023-05-06T10:02:49.269Z,101181.60
2023-05-06T10:08:00.547Z,101170.80
2023-05-06T10:13:10.184Z,101161.60
2023-05-06T10:18:22.634Z,101171.20
2023-05-06T10:23:41.290Z,101166.40
2023-05-06T10:28:55.141Z,101164.40
2023-05-06T10:34:09.321Z,101165.40
2023-05-06T10:39:19.278Z,101155.80
2023-05-06T10:44:59.193Z,101152.20
2023-05-06T10:50:29.091Z,101157.00
2023-05-06T10:55:40.385Z,101140.20
2023-05-06T11:00:58.401Z,101140.00
2023-05-06T11:06:09.009Z,101141.60
2023-05-06T11:12:00.622Z,101140.00
2023-05-06T11:17:30.212Z,101142.20
2023-05-06T11:22:46.066Z,101143.60
2023-05-06T11:27:57.449Z,101138.60
2023-05-06T11:33:10.991Z,101141.20
2023-05-06T11:38:20.716Z,101139.00
2023-05-06T11:43:30.286Z,101134.40
2023-05-06T11:48:39.842Z,101127.40
2023-05-06T11:53:49.562Z,101129.80
2023-05-06T11:58:59.967Z,101128.00
2023-05-06T12:04:10.107Z,101135.20
2023-05-06T12:09:22.571Z,101136.00
2023-05-06T12:14:32.967Z,101133.20
2023-05-06T12:19:43.492Z,101129.60
2023-05-06T12:24:53.759Z,101127.20
2023-05-06T12:30:04.998Z,101126.80
2023-05-06T12:35:30.855Z,101125.00
2023-05-06T12:40:41.416Z,101119.40
2023-05-06T12:46:09.341Z,101117.20
2023-05-06T12:51:27.143Z,101111.40
2023-05-06T12:56:36.692Z,101114.00
2023-05-06T13:01:46.229Z,101111.40
2023-05-06T13:06:57.418Z,101122.60
2023-05-06T13:12:07.857Z,101118.40
2023-05-06T13:17:17.622Z,101107.80
2023-05-06T13:22:27.399Z,101112.20
2023-05-06T13:27:37.221Z,101115.80
2023-05-06T13:32:47.082Z,101101.20
2023-05-06T13:37:56.860Z,101103.60
2023-05-06T13:43:06.404Z,101102.80
2023-05-06T13:48:16.052Z,101095.40
2023-05-06T13:53:25.638Z,101094.60
2023-05-06T13:58:35.283Z,101097.80
2023-05-06T14:03:44.977Z,101095.40
2023-05-06T14:08:54.485Z,101097.00
2023-05-06T14:14:04.171Z,101104.00
2023-05-06T14:19:14.073Z,101096.40
2023-05-06T14:24:23.670Z,101095.40
2023-05-06T14:29:33.281Z,101092.40
2023-05-06T14:34:42.837Z,101092.00
2023-05-06T14:39:52.371Z,101084.80
2023-05-06T14:45:01.869Z,101075.20
2023-05-06T14:50:14.132Z,101079.00
2023-05-06T14:55:23.846Z,101077.80
2023-05-06T15:00:33.438Z,101077.80
2023-05-06T15:05:42.993Z,101067.60
2023-05-06T15:10:53.613Z,101071.80
2023-05-06T15:16:03.130Z,101072.60
2023-05-06T15:21:13.723Z,101087.00
2023-05-06T15:26:23.859Z,101078.80
2023-05-06T15:31:39.359Z,101075.80
2023-05-06T15:36:53.771Z,101077.40
2023-05-06T15:42:04.094Z,101076.00
2023-05-06T15:47:13.792Z,101080.80
2023-05-06T15:52:23.520Z,101077.00
2023-05-06T15:57:35.705Z,101076.80
2023-05-06T16:02:45.461Z,101073.20
2023-05-06T16:07:56.189Z,101073.80
2023-05-06T16:13:05.986Z,101078.00
2023-05-06T16:18:15.783Z,101079.20
2023-05-06T16:23:26.612Z,101076.20
2023-05-06T16:28:37.381Z,101085.40
2023-05-06T16:33:48.367Z,101086.40
2023-05-06T16:38:57.895Z,101083.20
2023-05-06T16:44:07.740Z,101083.20
2023-05-06T16:49:17.209Z,101075.20
2023-05-06T16:54:26.814Z,101085.40
2023-05-06T16:59:36.419Z,101088.20
2023-05-06T17:04:46.224Z,101079.60
2023-05-06T17:09:55.826Z,101076.00
2023-05-06T17:15:06.560Z,101078.80
2023-05-06T17:20:17.306Z,101080.20
2023-05-06T17:25:26.994Z,101082.00
2023-05-06T17:30:36.729Z,101086.20
2023-05-06T17:35:46.260Z,101080.40
2023-05-06T17:40:55.743Z,101081.60
2023-05-06T17:46:06.029Z,101080.60
2023-05-06T17:51:16.043Z,101082.00
2023-05-06T17:56:25.588Z,101082.00
2023-05-06T18:01:35.142Z,101081.40
2023-05-06T18:06:46.051Z,101081.60
2023-05-06T18:11:55.674Z,101089.80
2023-05-06T18:17:05.364Z,101087.00
2023-05-06T18:22:14.959Z,101090.80
2023-05-06T18:27:25.301Z,101094.60
2023-05-06T18:32:35.307Z,101096.60
2023-05-06T18:37:45.103Z,101100.80
2023-05-06T18:42:56.871Z,101091.80
2023-05-06T18:48:06.842Z,101097.60
2023-05-06T18:53:16.990Z,101101.80
2023-05-06T18:58:26.764Z,101109.60
2023-05-06T19:03:37.807Z,101109.60
2023-05-06T19:08:47.468Z,101113.60
2023-05-06T19:13:57.054Z,101112.00
2023-05-06T19:19:07.705Z,101115.60
2023-05-06T19:24:17.385Z,101123.40
2023-05-06T19:29:26.954Z,101122.20
2023-05-06T19:34:36.945Z,101122.00
2023-05-06T19:39:47.945Z,101111.40
2023-05-06T19:44:57.740Z,101115.00
2023-05-06T19:50:09.089Z,101120.20
2023-05-06T19:55:19.229Z,101113.20
2023-05-06T20:00:30.587Z,101112.60
2023-05-06T20:05:40.132Z,101120.20
2023-05-06T20:10:51.202Z,101116.00
2023-05-06T20:16:02.224Z,101124.60
2023-05-06T20:21:11.937Z,101128.60
2023-05-06T20:26:23.903Z,101125.20
2023-05-06T20:31:34.691Z,101124.40
2023-05-06T20:36:46.186Z,101115.40
2023-05-06T20:41:55.918Z,101117.00
2023-05-06T20:47:10.797Z,101118.20
2023-05-06T20:52:21.873Z,101117.40
2023-05-06T20:57:31.365Z,101113.00
2023-05-06T21:02:41.918Z,101114.40
2023-05-06T21:07:52.118Z,101111.80
2023-05-06T21:13:02.255Z,101111.00
2023-05-06T21:18:11.903Z,101120.80
2023-05-06T21:23:22.298Z,101116.40
2023-05-06T21:28:31.837Z,101119.60
2023-05-06T21:33:41.368Z,101120.80
2023-05-06T21:39:03.886Z,101114.80
2023-05-06T21:44:14.068Z,101114.20
2023-05-06T21:49:23.595Z,101117.40
2023-05-06T21:54:33.145Z,101127.00
2023-05-06T21:59:42.785Z,101121.80
2023-05-06T22:04:52.293Z,101128.00
2023-05-06T22:10:01.845Z,101125.20
2023-05-06T22:15:15.011Z,101128.00
2023-05-06T22:20:25.108Z,101120.20
2023-05-06T22:25:34.688Z,101119.60
2023-05-06T22:30:44.161Z,101124.00
2023-05-06T22:35:53.717Z,101119.00
2023-05-06T22:41:03.207Z,101122.00
2023-05-06T22:46:12.729Z,101121.40
2023-05-06T22:51:22.531Z,101123.60
2023-05-06T22:56:32.001Z,101121.40
2023-05-06T23:01:41.514Z,101127.60
2023-05-06T23:06:51.092Z,101132.60
2023-05-06T23:12:01.826Z,101128.00
2023-05-06T23:17:11.488Z,101137.00
2023-05-06T23:22:21.186Z,101133.40
2023-05-06T23:27:30.918Z,101132.80
2023-05-06T23:32:41.494Z,101124.40
2023-05-06T23:37:50.902Z,101136.60
2023-05-06T23:43:00.590Z,101134.40
2023-05-06T23:48:11.089Z,101133.00
2023-05-06T23:53:20.730Z,101131.40
2023-05-06T23:58:30.230Z,101128.40
